Pacific - North Coast: Past 24 Hour Conditions

 

Bella Coola Airport

03:00 AM PST 25 February 2018
Disclaimer

This table is a summary of hourly weather conditions for the past 24 hours.
Please note that these observations might not always be representative of weather conditions over their associated marine area.

Date / Time
(PST)
Wind(knots) Conditions Visibility(km) Pressure(kPa) Air tempC) Relative humidity(%) Dew pointC) Wind Chill
25 February 2018
3:00 W 6 N/A N/A 100.3 1 97 0 *
2:00 W 8 N/A N/A 100.3 1 94 0 *
1:00 WNW 11 N/A N/A 100.2 1 95 0 *
0:00 W 9 N/A N/A 100.2 1 95 0 *
24 February 2018
23:00 W 11 N/A N/A 100.2 2 90 0 *
22:00 W 10 gust 16 N/A N/A 100.2 1 95 0 *
21:00 WNW 12 gust 18 N/A N/A 100.2 1 96 0 *
20:00 WNW 12 N/A N/A 100.2 1 93 0 *
19:00 WNW 11 gust 16 N/A N/A 100.3 2 92 1 *
18:00 W 10 N/A N/A 100.6 2 90 1 *
17:00 WNW 13 gust 18 Light Rain 16 100.8 3 85 0 *
16:00 W 13 gust 21 Light Rain 16 101.0 2 86 0 *
15:00 WSW 17 gust 27 Mostly Cloudy 19 101.2 3 76 -1 *
14:00 W 16 gust 21 Light Rain 24 101.3 3 78 0 *
13:00 W 10 gust 16 Light Rain 24 101.4 3 79 0 *
12:00 WNW 8 gust 19 Cloudy 19 101.6 3 81 0 *
11:00 WNW 9 Mostly Cloudy 19 101.7 2 85 0 *
10:00 WNW 8 Mostly Cloudy 16 101.7 2 90 0 *
9:00 WNW 5 Light Snow 11 101.7 1 93 0 *
8:00 S 2 Mostly Cloudy 13 101.7 0 98 0 *
7:00 NE 3 Mostly Cloudy 13 101.6 0 99 0 -2
6:00 ENE 5 N/A N/A 101.6 0 99 -1 -4
5:00 WNW 1 N/A N/A 101.6 -1 99 -1 -1
4:00 SE 2 N/A N/A 101.5 0 99 -1 -2
3:00 SSE 3 N/A N/A 101.5 0 99 0 -2

Zoom-in to make a selection

Map of Pacific - North Coast marine weather areas Middle Nomad - 46004 South Nomad - 46036 Dixon Entrance Central - 46145 South Moresby - 46147 Nanakwa Shoal - 46181 North Hecate Strait - 46183 North Nomad - 46184 South Hecate Strait - 46185 West Sea Otter - 46204 West Dixon Entrance - 46205 East Dellwood - 46207 West Moresby - 46208 Sartine Island Cape St.James Kindakun Rocks Langara Island Masset Municipal Airport Rose Spit Sandspit Airport Bella Bella Airport Bella Coola Airport Cathedral Point Cumshewa Island Grey Islet Holland Rock Lucy Islands Lightstation Prince Rupert Airport Bonilla Island
Legend:
buoy Buoy
land station Land Station

Pacific - North Coast Area

Another Region

What we are doing

Date modified: